Time;durP1;ratioP1;P1;durP2;ratioP2;P2;SDS_P1;SDS_P2;PMS_P1;PMS_P2;Temp;Humidity;BMP_temperature;BMP_pressure;BME280_temperature;BME280_humidity;BME280_pressure;Samples;Min_cycle;Max_cycle;Signal;HPM_P1;HPM_P2
2021/01/27 00:02:15;;;;;;;15.30;7.90;;;;;;;;;;5114503;27;20035;-73
2021/01/27 00:04:41;;;;;;;32.55;14.95;;;;;;;;;;5111197;27;20028;-73
2021/01/27 00:07:07;;;;;;;20.48;12.68;;;;;;;;;;5118146;27;20052;-71
2021/01/27 00:09:33;;;;;;;16.60;8.52;;;;;;;;;;5110667;28;20020;-73
2021/01/27 00:11:59;;;;;;;31.05;16.23;;;;;;;;;;5103302;28;20092;-72
2021/01/27 00:14:25;;;;;;;15.50;8.23;;;;;;;;;;5112591;28;20027;-73
2021/01/27 00:16:51;;;;;;;15.32;7.57;;;;;;;;;;5108575;28;20024;-73
2021/01/27 00:19:17;;;;;;;15.60;9.50;;;;;;;;;;5113080;28;20058;-72
2021/01/27 00:21:43;;;;;;;27.25;13.35;;;;;;;;;;5116724;27;20484;-75
2021/01/27 00:24:09;;;;;;;25.55;12.68;;;;;;;;;;5105804;28;20509;-75
2021/01/27 00:26:35;;;;;;;18.27;7.93;;;;;;;;;;5119926;27;20030;-72
2021/01/27 00:29:01;;;;;;;29.02;15.32;;;;;;;;;;5119131;27;20024;-73
2021/01/27 00:31:27;;;;;;;21.17;12.82;;;;;;;;;;5108566;28;20038;-74
2021/01/27 00:33:53;;;;;;;19.10;12.77;;;;;;;;;;5111642;28;20035;-73
2021/01/27 00:36:20;;;;;;;13.38;8.43;;;;;;;;;;5127647;27;20127;-74
2021/01/27 00:38:46;;;;;;;24.23;13.00;;;;;;;;;;5111664;28;20485;-73
2021/01/27 00:41:12;;;;;;;20.77;11.02;;;;;;;;;;5113077;27;20077;-72
2021/01/27 00:43:38;;;;;;;17.42;10.57;;;;;;;;;;5112127;27;20117;-73
2021/01/27 00:46:04;;;;;;;31.20;18.83;;;;;;;;;;5125154;27;20125;-72
2021/01/27 00:48:30;;;;;;;24.10;14.02;;;;;;;;;;5111557;28;20012;-72
2021/01/27 00:50:56;;;;;;;21.77;13.95;;;;;;;;;;5111112;28;20019;-73
2021/01/27 00:53:22;;;;;;;17.60;10.18;;;;;;;;;;5113203;27;20084;-72
2021/01/27 00:55:48;;;;;;;18.27;10.98;;;;;;;;;;5126054;27;20023;-72
2021/01/27 00:58:14;;;;;;;20.35;10.38;;;;;;;;;;5117663;27;20024;-73
2021/01/27 01:00:41;;;;;;;27.98;12.90;;;;;;;;;;5114083;27;20031;-72
2021/01/27 01:03:08;;;;;;;26.75;14.00;;;;;;;;;;5104071;27;20031;-73
2021/01/27 01:05:36;;;;;;;9.48;5.88;;;;;;;;;;5111225;28;20031;-72
2021/01/27 01:08:02;;;;;;;20.45;13.32;;;;;;;;;;5109439;28;20027;-71
2021/01/27 01:10:28;;;;;;;19.92;11.98;;;;;;;;;;5109018;27;20022;-73
2021/01/27 01:12:55;;;;;;;21.20;11.43;;;;;;;;;;5109536;27;20023;-73
2021/01/27 01:15:22;;;;;;;18.45;12.43;;;;;;;;;;5111452;28;20023;-77
2021/01/27 01:17:48;;;;;;;16.20;8.50;;;;;;;;;;5110896;28;20110;-73
2021/01/27 01:20:15;;;;;;;22.60;13.82;;;;;;;;;;5108808;28;20023;-76
2021/01/27 01:22:45;;;;;;;18.77;10.05;;;;;;;;;;5111571;27;20032;-72
2021/01/27 01:25:13;;;;;;;20.75;12.18;;;;;;;;;;5101196;28;20034;-73
2021/01/27 01:27:39;;;;;;;22.05;14.30;;;;;;;;;;5109307;28;20027;-72
2021/01/27 01:30:07;;;;;;;20.70;9.45;;;;;;;;;;5116208;27;20023;-74
2021/01/27 01:32:33;;;;;;;19.67;11.77;;;;;;;;;;5108944;27;20544;-73
2021/01/27 01:34:59;;;;;;;18.92;11.30;;;;;;;;;;5110908;27;20558;-73
2021/01/27 01:37:25;;;;;;;11.20;6.97;;;;;;;;;;5112828;27;20032;-72
2021/01/27 01:39:51;;;;;;;21.10;12.43;;;;;;;;;;5110200;28;20068;-73
2021/01/27 01:42:18;;;;;;;21.92;12.32;;;;;;;;;;5111755;27;20024;-72
2021/01/27 01:44:44;;;;;;;23.67;15.95;;;;;;;;;;5110132;28;20020;-72
2021/01/27 01:47:10;;;;;;;20.77;12.10;;;;;;;;;;5121406;27;20019;-74
2021/01/27 01:49:36;;;;;;;27.85;15.70;;;;;;;;;;5121802;27;20056;-74
2021/01/27 01:52:03;;;;;;;23.73;12.65;;;;;;;;;;5118011;27;20560;-77
2021/01/27 01:54:43;;;;;;;15.88;8.18;;;;;;;;;;5114308;27;20023;-73
2021/01/27 01:57:22;;;;;;;21.95;13.13;;;;;;;;;;5111547;27;20024;-73
2021/01/27 01:59:52;;;;;;;19.00;11.27;;;;;;;;;;5109596;27;20027;-75
2021/01/27 02:02:18;;;;;;;17.67;10.38;;;;;;;;;;5106516;28;20032;-73
2021/01/27 02:04:49;;;;;;;12.90;7.28;;;;;;;;;;5100855;28;20032;-73
2021/01/27 02:07:15;;;;;;;19.38;9.98;;;;;;;;;;5114738;27;20019;-73
2021/01/27 02:09:41;;;;;;;19.23;9.68;;;;;;;;;;5114903;27;20031;-76
2021/01/27 02:12:26;;;;;;;32.88;19.85;;;;;;;;;;5103857;28;20020;-73
2021/01/27 02:14:58;;;;;;;13.18;6.50;;;;;;;;;;5107501;28;20028;-73
2021/01/27 02:17:24;;;;;;;28.05;15.73;;;;;;;;;;5110917;28;20401;-75
2021/01/27 02:20:16;;;;;;;19.48;10.40;;;;;;;;;;5111160;28;20019;-74
2021/01/27 02:22:45;;;;;;;32.83;19.42;;;;;;;;;;5109087;28;20057;-73
2021/01/27 02:25:26;;;;;;;29.90;20.40;;;;;;;;;;5107873;28;20023;-74
2021/01/27 02:27:54;;;;;;;36.92;15.45;;;;;;;;;;5112599;28;20024;-73
2021/01/27 02:30:43;;;;;;;31.67;18.10;;;;;;;;;;5108309;28;20024;-73
2021/01/27 02:33:15;;;;;;;24.35;14.10;;;;;;;;;;5107718;28;20080;-74
2021/01/27 02:35:50;;;;;;;19.95;10.48;;;;;;;;;;5110904;28;20477;-73
2021/01/27 02:38:23;;;;;;;20.65;12.80;;;;;;;;;;5112258;28;20054;-74
2021/01/27 02:40:52;;;;;;;25.10;15.27;;;;;;;;;;5108131;28;20058;-73
2021/01/27 02:43:25;;;;;;;25.38;12.80;;;;;;;;;;5113216;27;20059;-74
2021/01/27 02:46:17;;;;;;;22.42;13.55;;;;;;;;;;5112337;27;20038;-73
2021/01/27 02:48:43;;;;;;;;;;;;;;;;;;5111372;27;20057;-72
2021/01/27 02:51:16;;;;;;;21.95;12.82;;;;;;;;;;5122686;27;19907;-75
2021/01/27 02:53:48;;;;;;;25.15;14.52;;;;;;;;;;5113878;28;20023;-74
2021/01/27 02:56:33;;;;;;;33.88;21.05;;;;;;;;;;5113146;27;20046;-73
2021/01/27 02:59:28;;;;;;;23.85;14.23;;;;;;;;;;5111915;27;20036;-73
2021/01/27 03:02:04;;;;;;;20.80;13.57;;;;;;;;;;5108317;27;20027;-73
2021/01/27 03:04:36;;;;;;;16.88;10.75;;;;;;;;;;5104871;27;20032;-73
2021/01/27 03:07:03;;;;;;;24.83;15.05;;;;;;;;;;5117837;27;20031;-75
2021/01/27 03:09:48;;;;;;;20.98;13.20;;;;;;;;;;5116552;27;20039;-73
2021/01/27 03:12:14;;;;;;;21.65;14.00;;;;;;;;;;5111381;28;20023;-76
2021/01/27 03:14:40;;;;;;;27.67;15.80;;;;;;;;;;5112956;28;20088;-73
2021/01/27 03:17:09;;;;;;;26.15;16.42;;;;;;;;;;5108423;28;20028;-72
2021/01/27 03:19:38;;;;;;;23.02;15.57;;;;;;;;;;5112334;27;20024;-73
2021/01/27 03:22:15;;;;;;;24.27;14.50;;;;;;;;;;5113414;27;20028;-72
2021/01/27 03:24:45;;;;;;;21.90;12.85;;;;;;;;;;5113751;28;20069;-72
2021/01/27 03:27:14;;;;;;;19.17;12.02;;;;;;;;;;5120258;27;20049;-72
2021/01/27 03:29:48;;;;;;;15.70;10.43;;;;;;;;;;5111181;28;20133;-72
2021/01/27 03:32:20;;;;;;;19.27;9.23;;;;;;;;;;5106673;28;20119;-73
2021/01/27 03:34:48;;;;;;;15.98;10.60;;;;;;;;;;5112703;27;20129;-72
2021/01/27 03:37:21;;;;;;;18.65;11.23;;;;;;;;;;5106366;28;20057;-72
2021/01/27 03:39:49;;;;;;;22.17;11.73;;;;;;;;;;5119120;27;20035;-74
2021/01/27 03:42:21;;;;;;;22.42;13.77;;;;;;;;;;5112558;27;20015;-73
2021/01/27 03:44:55;;;;;;;23.23;12.85;;;;;;;;;;5112462;28;20016;-72
2021/01/27 03:47:44;;;;;;;22.45;12.13;;;;;;;;;;5113973;27;20030;-72
2021/01/27 03:50:20;;;;;;;18.90;11.27;;;;;;;;;;5116340;27;20427;-72
2021/01/27 03:52:51;;;;;;;26.50;10.80;;;;;;;;;;5101278;28;20515;-73
2021/01/27 03:55:17;;;;;;;18.55;10.35;;;;;;;;;;5126601;27;20034;-72
2021/01/27 03:57:46;;;;;;;19.60;11.23;;;;;;;;;;5112465;27;20038;-73
2021/01/27 04:00:12;;;;;;;19.63;12.43;;;;;;;;;;5112946;27;20031;-75
2021/01/27 04:02:39;;;;;;;27.50;14.85;;;;;;;;;;5110247;28;20047;-72
2021/01/27 04:05:05;;;;;;;25.45;15.30;;;;;;;;;;5114811;27;20028;-73
2021/01/27 04:07:31;;;;;;;26.15;12.77;;;;;;;;;;5113095;27;20153;-73
2021/01/27 04:09:57;;;;;;;34.85;20.33;;;;;;;;;;5114256;27;20030;-73
2021/01/27 04:12:23;;;;;;;33.38;17.40;;;;;;;;;;5120356;27;20011;-73
2021/01/27 04:14:49;;;;;;;12.65;8.45;;;;;;;;;;5110921;27;20046;-73
2021/01/27 04:17:15;;;;;;;18.27;10.68;;;;;;;;;;5112240;28;20476;-73
2021/01/27 04:19:41;;;;;;;23.33;14.68;;;;;;;;;;5121631;27;20027;-73
2021/01/27 04:22:07;;;;;;;19.83;10.73;;;;;;;;;;5110781;28;20020;-72
2021/01/27 04:24:33;;;;;;;32.30;18.23;;;;;;;;;;5118395;27;20491;-73
2021/01/27 04:26:59;;;;;;;32.53;19.40;;;;;;;;;;5116431;27;20473;-73
2021/01/27 04:29:25;;;;;;;27.33;14.38;;;;;;;;;;5112876;27;20020;-73
2021/01/27 04:31:52;;;;;;;18.80;12.25;;;;;;;;;;5110559;28;20408;-73
2021/01/27 04:34:18;;;;;;;31.65;19.85;;;;;;;;;;5112696;27;20032;-73
2021/01/27 04:36:44;;;;;;;26.00;14.77;;;;;;;;;;5113801;27;20192;-74
2021/01/27 04:39:10;;;;;;;14.20;7.90;;;;;;;;;;5109799;27;20477;-73
2021/01/27 04:41:36;;;;;;;32.83;20.05;;;;;;;;;;5117456;27;20034;-72
2021/01/27 04:44:03;;;;;;;35.40;20.65;;;;;;;;;;5114557;27;20157;-73
2021/01/27 04:46:32;;;;;;;30.25;17.23;;;;;;;;;;5111606;28;20035;-73
2021/01/27 04:49:06;;;;;;;29.08;15.73;;;;;;;;;;5107967;27;20039;-73
2021/01/27 04:51:39;;;;;;;35.90;19.20;;;;;;;;;;5105706;28;20162;-73
2021/01/27 04:54:11;;;;;;;19.90;10.30;;;;;;;;;;5111716;27;20097;-73
2021/01/27 04:56:37;;;;;;;20.67;11.95;;;;;;;;;;5111847;27;20023;-73
2021/01/27 04:59:07;;;;;;;29.17;17.42;;;;;;;;;;5110436;28;20039;-73
2021/01/27 05:01:46;;;;;;;27.70;15.52;;;;;;;;;;5102061;27;20121;-74
2021/01/27 05:04:30;;;;;;;21.85;10.93;;;;;;;;;;5109179;27;20031;-73
2021/01/27 05:07:01;;;;;;;35.45;20.73;;;;;;;;;;5109308;28;20050;-73
2021/01/27 05:09:40;;;;;;;39.85;20.23;;;;;;;;;;5103452;27;20031;-72
2021/01/27 05:12:08;;;;;;;16.15;9.48;;;;;;;;;;5106021;28;20043;-72
2021/01/27 05:14:34;;;;;;;32.83;16.52;;;;;;;;;;5114078;27;20487;-72
2021/01/27 05:17:04;;;;;;;31.83;16.05;;;;;;;;;;5110413;27;20062;-72
2021/01/27 05:19:30;;;;;;;32.00;16.92;;;;;;;;;;5113038;27;20034;-72
2021/01/27 05:21:57;;;;;;;40.42;23.17;;;;;;;;;;5105776;27;20023;-72
2021/01/27 05:24:23;;;;;;;39.15;23.40;;;;;;;;;;5111822;28;20019;-72
2021/01/27 05:26:57;;;;;;;31.25;19.88;;;;;;;;;;5106492;28;20438;-72
2021/01/27 05:29:29;;;;;;;34.75;19.52;;;;;;;;;;5111485;27;20020;-72
2021/01/27 05:31:56;;;;;;;34.88;17.80;;;;;;;;;;5098154;28;20063;-72
2021/01/27 05:34:35;;;;;;;24.38;14.90;;;;;;;;;;5108906;27;20456;-72
2021/01/27 05:37:02;;;;;;;40.90;21.17;;;;;;;;;;5114202;27;20110;-72
2021/01/27 05:39:28;;;;;;;15.38;8.38;;;;;;;;;;5111949;27;20063;-73
2021/01/27 05:42:07;;;;;;;42.72;24.73;;;;;;;;;;5114530;27;20073;-72
2021/01/27 05:44:33;;;;;;;40.15;21.40;;;;;;;;;;5107866;27;20097;-73
2021/01/27 05:47:19;;;;;;;35.00;19.60;;;;;;;;;;5106787;27;20401;-72
2021/01/27 05:49:45;;;;;;;24.80;12.85;;;;;;;;;;5110518;27;20050;-73
2021/01/27 05:52:15;;;;;;;49.55;27.00;;;;;;;;;;5108119;27;20023;-72
2021/01/27 05:54:41;;;;;;;25.92;15.02;;;;;;;;;;5108829;28;20068;-73
2021/01/27 05:57:17;;;;;;;39.63;22.60;;;;;;;;;;5109794;28;20020;-73
2021/01/27 05:59:44;;;;;;;27.88;15.43;;;;;;;;;;5105592;28;20026;-72
2021/01/27 06:02:10;;;;;;;28.60;14.77;;;;;;;;;;5108597;27;20697;-72
2021/01/27 06:04:38;;;;;;;42.20;23.10;;;;;;;;;;5110236;28;20016;-72
2021/01/27 06:07:09;;;;;;;41.80;22.75;;;;;;;;;;5110318;28;20088;-72
2021/01/27 06:09:39;;;;;;;43.50;22.10;;;;;;;;;;5111140;28;20055;-73
2021/01/27 06:12:15;;;;;;;37.35;18.42;;;;;;;;;;5109409;28;20108;-73
2021/01/27 06:14:41;;;;;;;36.67;20.73;;;;;;;;;;5105970;28;20042;-72
2021/01/27 06:17:27;;;;;;;41.22;24.67;;;;;;;;;;5107778;28;20034;-73
2021/01/27 06:20:01;;;;;;;43.40;21.80;;;;;;;;;;5100621;28;20019;-72
2021/01/27 06:22:30;;;;;;;29.05;14.38;;;;;;;;;;5098529;28;20024;-73
2021/01/27 06:25:15;;;;;;;30.00;17.10;;;;;;;;;;5115044;28;20172;-73
2021/01/27 06:27:52;;;;;;;22.08;13.65;;;;;;;;;;5096293;28;20028;-74
2021/01/27 06:30:24;;;;;;;25.35;14.38;;;;;;;;;;5103576;28;20027;-72
2021/01/27 06:33:13;;;;;;;23.70;11.85;;;;;;;;;;5106000;28;20032;-73
2021/01/27 06:35:59;;;;;;;47.45;25.30;;;;;;;;;;5107775;28;20060;-73
2021/01/27 06:38:25;;;;;;;43.72;21.70;;;;;;;;;;5108702;28;20042;-73
2021/01/27 06:40:57;;;;;;;27.67;13.23;;;;;;;;;;5106511;28;20023;-73
2021/01/27 06:43:26;;;;;;;33.03;16.95;;;;;;;;;;5105698;28;20038;-72
2021/01/27 06:45:52;;;;;;;48.75;26.27;;;;;;;;;;5112519;28;20039;-73
2021/01/27 06:48:31;;;;;;;48.85;26.00;;;;;;;;;;5104694;28;20098;-72
2021/01/27 06:51:00;;;;;;;25.05;13.75;;;;;;;;;;5108038;28;20032;-78
2021/01/27 06:53:45;;;;;;;37.20;17.27;;;;;;;;;;5109751;28;20015;-73
2021/01/27 06:56:32;;;;;;;43.22;24.27;;;;;;;;;;5102530;28;20072;-73
2021/01/27 06:59:17;;;;;;;38.95;21.67;;;;;;;;;;5104360;28;20035;-75
2021/01/27 07:01:57;;;;;;;39.15;20.08;;;;;;;;;;5104622;28;20493;-72
2021/01/27 07:04:22;;;;;;;29.02;14.85;;;;;;;;;;5112181;28;20121;-74
2021/01/27 07:07:05;;;;;;;29.27;15.55;;;;;;;;;;5111613;28;20038;-73
2021/01/27 07:09:40;;;;;;;44.17;22.00;;;;;;;;;;5102706;28;20106;-72
2021/01/27 07:12:20;;;;;;;41.80;20.88;;;;;;;;;;5103425;28;20016;-73
2021/01/27 07:15:05;;;;;;;49.63;25.38;;;;;;;;;;5106979;28;20043;-72
2021/01/27 07:17:51;;;;;;;45.75;24.88;;;;;;;;;;5107845;28;20030;-72
2021/01/27 07:20:20;;;;;;;38.55;20.00;;;;;;;;;;5096887;28;20032;-73
2021/01/27 07:23:07;;;;;;;47.50;28.42;;;;;;;;;;5104566;28;20101;-73
2021/01/27 07:25:52;;;;;;;27.58;12.65;;;;;;;;;;5109827;28;20025;-73
2021/01/27 07:28:25;;;;;;;37.28;16.27;;;;;;;;;;5109151;27;20024;-73
2021/01/27 07:31:06;;;;;;;47.53;23.05;;;;;;;;;;5112099;27;20034;-72
2021/01/27 07:33:54;;;;;;;39.72;19.60;;;;;;;;;;5112754;27;20063;-73
2021/01/27 07:36:26;;;;;;;44.65;23.90;;;;;;;;;;5113316;27;20024;-73
2021/01/27 07:38:54;;;;;;;47.70;25.88;;;;;;;;;;5117789;27;20031;-73
2021/01/27 07:41:23;;;;;;;32.58;17.33;;;;;;;;;;5103076;28;20098;-72
2021/01/27 07:43:54;;;;;;;35.30;15.60;;;;;;;;;;5107884;27;20173;-72
2021/01/27 07:46:39;;;;;;;45.38;20.63;;;;;;;;;;5117676;27;20023;-72
2021/01/27 07:49:06;;;;;;;48.95;26.02;;;;;;;;;;5110314;28;20040;-72
2021/01/27 07:51:37;;;;;;;56.45;26.40;;;;;;;;;;5112449;28;20020;-72
2021/01/27 07:54:08;;;;;;;48.23;26.13;;;;;;;;;;5107229;28;20042;-72
2021/01/27 07:56:34;;;;;;;43.30;22.87;;;;;;;;;;5112290;27;20032;-72
2021/01/27 07:59:05;;;;;;;43.38;23.00;;;;;;;;;;5114342;27;20079;-72
2021/01/27 08:01:31;;;;;;;20.77;11.55;;;;;;;;;;5110515;27;20077;-72
2021/01/27 08:04:01;;;;;;;47.42;21.92;;;;;;;;;;5106936;28;20040;-73
2021/01/27 08:06:29;;;;;;;46.50;21.48;;;;;;;;;;5113000;27;20027;-72
2021/01/27 08:08:57;;;;;;;54.60;24.88;;;;;;;;;;5104809;28;20072;-73
2021/01/27 08:11:36;;;;;;;46.33;22.10;;;;;;;;;;5103389;28;20020;-72
2021/01/27 08:14:03;;;;;;;58.38;28.73;;;;;;;;;;5106767;27;20030;-72
2021/01/27 08:16:35;;;;;;;58.80;24.92;;;;;;;;;;5106244;28;20447;-73
2021/01/27 08:19:07;;;;;;;66.10;28.02;;;;;;;;;;5111659;28;20049;-72
2021/01/27 08:21:50;;;;;;;58.28;27.63;;;;;;;;;;5110341;27;20015;-72
2021/01/27 08:24:35;;;;;;;55.58;27.65;;;;;;;;;;5107211;28;20489;-73
2021/01/27 08:27:13;;;;;;;63.03;28.95;;;;;;;;;;5107303;28;20094;-73
2021/01/27 08:29:41;;;;;;;68.15;27.75;;;;;;;;;;5108306;27;20024;-72
2021/01/27 08:32:23;;;;;;;54.45;25.80;;;;;;;;;;5108893;28;20020;-73
2021/01/27 08:34:50;;;;;;;56.40;25.85;;;;;;;;;;5107854;27;20045;-73
2021/01/27 08:37:20;;;;;;;60.80;30.52;;;;;;;;;;5104737;28;20024;-72
2021/01/27 08:39:46;;;;;;;62.67;27.30;;;;;;;;;;5103665;27;20098;-72
2021/01/27 08:42:21;;;;;;;63.80;28.13;;;;;;;;;;5106134;28;20512;-73
2021/01/27 08:44:47;;;;;;;68.60;30.48;;;;;;;;;;5108848;28;20028;-72
2021/01/27 08:47:16;;;;;;;66.40;28.13;;;;;;;;;;5106106;28;20020;-75
2021/01/27 08:49:42;;;;;;;63.03;30.20;;;;;;;;;;5107425;27;20408;-72
2021/01/27 08:52:11;;;;;;;67.57;29.75;;;;;;;;;;5103441;27;20047;-73
2021/01/27 08:54:40;;;;;;;64.55;29.13;;;;;;;;;;5101015;27;20073;-73
2021/01/27 08:57:15;;;;;;;63.25;26.20;;;;;;;;;;5109606;28;20019;-73
2021/01/27 08:59:51;;;;;;;53.92;26.50;;;;;;;;;;5111469;27;20558;-73
2021/01/27 09:02:36;;;;;;;59.75;26.65;;;;;;;;;;5105783;27;20040;-72
2021/01/27 09:05:03;;;;;;;61.28;28.77;;;;;;;;;;5105036;27;20043;-73
2021/01/27 09:07:29;;;;;;;69.72;31.20;;;;;;;;;;5108997;28;20089;-73
2021/01/27 09:09:55;;;;;;;63.38;28.63;;;;;;;;;;5113109;27;20032;-73
2021/01/27 09:12:27;;;;;;;68.15;29.40;;;;;;;;;;5107474;27;20040;-75
2021/01/27 09:14:53;;;;;;;57.22;28.00;;;;;;;;;;5103423;28;20027;-73
2021/01/27 09:17:19;;;;;;;62.38;27.45;;;;;;;;;;5110429;27;20412;-74
2021/01/27 09:19:46;;;;;;;64.78;26.65;;;;;;;;;;5104572;28;20042;-75
2021/01/27 09:22:38;;;;;;;58.95;26.33;;;;;;;;;;5099241;28;20043;-74
2021/01/27 09:25:05;;;;;;;61.95;27.35;;;;;;;;;;5106597;28;20527;-74
2021/01/27 09:27:33;;;;;;;66.85;26.48;;;;;;;;;;5109752;27;20023;-73
2021/01/27 09:30:08;;;;;;;80.43;30.55;;;;;;;;;;5110986;28;20019;-74
2021/01/27 09:32:34;;;;;;;63.45;26.88;;;;;;;;;;5105128;28;20485;-74
2021/01/27 09:35:20;;;;;;;61.80;24.98;;;;;;;;;;5108095;28;20031;-74
2021/01/27 09:37:56;;;;;;;54.53;24.25;;;;;;;;;;5109668;27;20023;-73
2021/01/27 09:40:35;;;;;;;57.38;24.25;;;;;;;;;;5115017;27;20024;-73
2021/01/27 09:43:03;;;;;;;52.75;21.63;;;;;;;;;;5104711;28;20034;-75
2021/01/27 09:45:30;;;;;;;59.28;23.05;;;;;;;;;;5107474;28;20045;-73
2021/01/27 09:47:57;;;;;;;54.83;21.02;;;;;;;;;;5107381;28;20043;-73
2021/01/27 09:50:23;;;;;;;51.28;19.27;;;;;;;;;;5110817;27;20559;-76
2021/01/27 09:52:51;;;;;;;46.90;16.73;;;;;;;;;;5097540;28;20043;-74
2021/01/27 09:55:19;;;;;;;38.92;16.02;;;;;;;;;;5105538;28;20023;-75
2021/01/27 09:57:49;;;;;;;41.55;17.83;;;;;;;;;;5109729;27;20031;-74
2021/01/27 10:00:28;;;;;;;43.78;14.88;;;;;;;;;;5112964;27;20064;-75
2021/01/27 10:02:54;;;;;;;41.38;16.35;;;;;;;;;;5096171;28;20504;-75
2021/01/27 10:05:38;;;;;;;49.95;18.08;;;;;;;;;;5107965;28;20120;-75
2021/01/27 10:08:12;;;;;;;42.92;16.48;;;;;;;;;;5105671;27;20016;-74
2021/01/27 10:10:40;;;;;;;47.85;17.38;;;;;;;;;;5109304;28;20556;-75
2021/01/27 10:13:07;;;;;;;53.42;19.02;;;;;;;;;;5104337;28;20280;-77
2021/01/27 10:15:34;;;;;;;55.75;18.98;;;;;;;;;;5108488;28;20020;-76
2021/01/27 10:18:14;;;;;;;56.58;20.23;;;;;;;;;;5103718;28;20366;-75
2021/01/27 10:20:40;;;;;;;51.15;16.67;;;;;;;;;;5103045;28;20028;-76
2021/01/27 10:23:11;;;;;;;59.35;19.63;;;;;;;;;;5103985;28;20086;-76
2021/01/27 10:25:39;;;;;;;48.47;19.90;;;;;;;;;;5102624;28;20020;-75
2021/01/27 10:28:07;;;;;;;46.65;18.85;;;;;;;;;;5108962;28;20024;-75
2021/01/27 10:30:41;;;;;;;56.35;18.17;;;;;;;;;;5107732;28;20089;-75
2021/01/27 10:33:27;;;;;;;50.45;17.63;;;;;;;;;;5103314;28;20159;-75
2021/01/27 10:35:53;;;;;;;45.90;17.77;;;;;;;;;;5106972;28;20243;-75
2021/01/27 10:38:22;;;;;;;47.40;17.17;;;;;;;;;;5107930;28;20024;-74
2021/01/27 10:41:06;;;;;;;48.85;17.55;;;;;;;;;;5103812;28;20034;-75
2021/01/27 10:43:32;;;;;;;41.25;16.15;;;;;;;;;;5108891;28;20055;-75
2021/01/27 10:45:58;;;;;;;52.50;16.70;;;;;;;;;;5106849;28;20038;-76
2021/01/27 10:48:26;;;;;;;46.88;18.60;;;;;;;;;;5109766;28;20489;-75
2021/01/27 10:51:06;;;;;;;42.42;15.35;;;;;;;;;;5101777;28;20570;-75
2021/01/27 10:53:37;;;;;;;51.17;17.15;;;;;;;;;;5106397;28;20496;-75
2021/01/27 10:56:04;;;;;;;45.90;14.88;;;;;;;;;;5107812;28;20038;-76
2021/01/27 10:58:30;;;;;;;42.92;15.20;;;;;;;;;;5109607;27;20035;-75
2021/01/27 11:00:56;;;;;;;40.80;15.55;;;;;;;;;;5109509;28;20251;-75
2021/01/27 11:03:22;;;;;;;36.60;13.07;;;;;;;;;;5108111;28;20073;-74
2021/01/27 11:05:49;;;;;;;39.63;13.82;;;;;;;;;;5111496;28;20039;-75
2021/01/27 11:08:24;;;;;;;36.35;12.40;;;;;;;;;;5109746;28;20039;-75
2021/01/27 11:10:50;;;;;;;38.28;13.23;;;;;;;;;;5110231;28;20028;-75
2021/01/27 11:13:16;;;;;;;33.35;14.50;;;;;;;;;;5108821;28;20031;-75
2021/01/27 11:15:42;;;;;;;44.40;15.13;;;;;;;;;;5105503;28;20028;-74
2021/01/27 11:18:08;;;;;;;39.78;13.10;;;;;;;;;;5108784;28;20020;-75
2021/01/27 11:20:34;;;;;;;38.60;12.90;;;;;;;;;;5109517;28;20019;-75
2021/01/27 11:23:00;;;;;;;35.95;12.75;;;;;;;;;;5104840;27;20280;-74
2021/01/27 11:25:27;;;;;;;41.33;12.20;;;;;;;;;;5105960;28;20583;-75
2021/01/27 11:27:54;;;;;;;37.55;11.45;;;;;;;;;;5106384;28;20039;-75
2021/01/27 11:30:21;;;;;;;43.25;12.90;;;;;;;;;;5103987;27;20499;-76
2021/01/27 11:32:47;;;;;;;33.42;10.95;;;;;;;;;;5099279;27;20042;-76
2021/01/27 11:35:14;;;;;;;30.92;12.90;;;;;;;;;;5108240;28;20057;-76
2021/01/27 11:37:40;;;;;;;33.78;10.52;;;;;;;;;;5105522;28;20032;-76
2021/01/27 11:40:07;;;;;;;30.30;10.70;;;;;;;;;;5106632;28;20051;-76
2021/01/27 11:42:33;;;;;;;43.10;12.27;;;;;;;;;;5104865;28;20024;-74
2021/01/27 11:44:59;;;;;;;40.20;11.45;;;;;;;;;;5109822;28;20081;-75
2021/01/27 11:47:25;;;;;;;28.48;10.80;;;;;;;;;;5112410;28;20087;-74
2021/01/27 11:49:51;;;;;;;31.92;10.70;;;;;;;;;;5106275;28;20048;-74
2021/01/27 11:52:18;;;;;;;29.75;11.32;;;;;;;;;;5099738;27;20028;-74
2021/01/27 11:54:44;;;;;;;36.47;12.00;;;;;;;;;;5110622;28;20043;-74
2021/01/27 11:57:10;;;;;;;24.92;11.13;;;;;;;;;;5106048;28;20022;-74
2021/01/27 11:59:37;;;;;;;32.28;11.43;;;;;;;;;;5100204;27;20043;-74
2021/01/27 12:02:04;;;;;;;27.35;11.57;;;;;;;;;;5106939;28;20039;-75
2021/01/27 12:04:30;;;;;;;44.03;11.45;;;;;;;;;;5110888;28;20030;-74
2021/01/27 12:06:56;;;;;;;35.30;12.20;;;;;;;;;;5105729;28;20271;-74
2021/01/27 12:09:22;;;;;;;32.83;11.48;;;;;;;;;;5108887;27;20353;-75
2021/01/27 12:11:49;;;;;;;34.55;11.88;;;;;;;;;;5111777;27;20141;-74
2021/01/27 12:14:15;;;;;;;39.45;12.52;;;;;;;;;;5111325;27;20081;-74
2021/01/27 12:16:44;;;;;;;31.35;12.57;;;;;;;;;;5109766;27;20027;-74
2021/01/27 12:19:10;;;;;;;39.72;11.70;;;;;;;;;;5108156;28;20051;-76
2021/01/27 12:21:36;;;;;;;40.63;13.95;;;;;;;;;;5104156;27;20036;-75
2021/01/27 12:24:04;;;;;;;37.92;12.98;;;;;;;;;;5103941;28;20027;-74
2021/01/27 12:26:30;;;;;;;35.08;12.55;;;;;;;;;;5109847;28;20020;-74
2021/01/27 12:28:56;;;;;;;39.70;13.43;;;;;;;;;;5112157;28;20028;-74
2021/01/27 12:31:22;;;;;;;33.63;13.77;;;;;;;;;;5108287;28;20591;-74
2021/01/27 12:33:49;;;;;;;39.92;12.88;;;;;;;;;;5110414;28;20063;-75
2021/01/27 12:36:15;;;;;;;36.70;13.02;;;;;;;;;;5109609;28;20035;-74
2021/01/27 12:38:41;;;;;;;37.70;13.35;;;;;;;;;;5110280;28;20031;-74
2021/01/27 12:41:07;;;;;;;35.38;13.15;;;;;;;;;;5104464;28;20032;-75
2021/01/27 12:43:33;;;;;;;33.83;12.70;;;;;;;;;;5111949;28;20458;-75
2021/01/27 12:46:01;;;;;;;41.00;13.63;;;;;;;;;;5110294;28;20016;-74
2021/01/27 12:48:27;;;;;;;33.95;12.80;;;;;;;;;;5107415;28;20112;-75
2021/01/27 12:50:53;;;;;;;34.85;11.90;;;;;;;;;;5107627;28;20107;-75
2021/01/27 12:53:19;;;;;;;31.95;12.82;;;;;;;;;;5106158;27;20505;-74
2021/01/27 12:55:45;;;;;;;35.40;12.63;;;;;;;;;;5107591;28;20063;-74
2021/01/27 12:58:11;;;;;;;35.90;12.25;;;;;;;;;;5104650;28;20081;-74
2021/01/27 13:00:37;;;;;;;29.90;12.13;;;;;;;;;;5110651;28;20031;-74
2021/01/27 13:03:03;;;;;;;40.65;12.55;;;;;;;;;;5100163;28;20547;-75
2021/01/27 13:05:30;;;;;;;36.70;11.30;;;;;;;;;;5106714;28;20032;-74
2021/01/27 13:07:56;;;;;;;35.53;11.18;;;;;;;;;;5105937;28;20039;-74
2021/01/27 13:10:22;;;;;;;30.67;12.35;;;;;;;;;;5111897;27;20508;-75
2021/01/27 13:12:50;;;;;;;30.13;11.23;;;;;;;;;;5103086;28;20480;-74
2021/01/27 13:15:17;;;;;;;29.05;10.68;;;;;;;;;;5110362;28;20019;-75
2021/01/27 13:17:43;;;;;;;30.95;9.77;;;;;;;;;;5106895;28;20016;-74
2021/01/27 13:20:11;;;;;;;31.70;9.90;;;;;;;;;;5105148;28;20024;-73
2021/01/27 13:22:37;;;;;;;27.77;9.60;;;;;;;;;;5102302;28;20019;-75
2021/01/27 13:25:04;;;;;;;23.38;8.85;;;;;;;;;;5101729;27;20130;-73
2021/01/27 13:27:30;;;;;;;24.23;8.55;;;;;;;;;;5109208;28;20032;-74
2021/01/27 13:29:56;;;;;;;33.80;10.68;;;;;;;;;;5106562;27;20027;-74
2021/01/27 13:32:22;;;;;;;33.97;10.75;;;;;;;;;;5105015;27;20024;-75
2021/01/27 13:34:48;;;;;;;27.45;9.25;;;;;;;;;;5101039;28;20051;-74
2021/01/27 13:37:17;;;;;;;25.45;10.25;;;;;;;;;;5123170;27;20028;-73
2021/01/27 13:39:44;;;;;;;27.65;9.90;;;;;;;;;;5106353;27;20067;-74
2021/01/27 13:42:10;;;;;;;23.42;9.93;;;;;;;;;;5106542;28;20088;-74
2021/01/27 13:44:37;;;;;;;20.15;10.50;;;;;;;;;;5107974;28;20031;-75
2021/01/27 13:47:03;;;;;;;28.25;11.10;;;;;;;;;;5109850;28;20498;-74
2021/01/27 13:49:29;;;;;;;30.00;12.30;;;;;;;;;;5105465;28;20032;-74
2021/01/27 13:51:55;;;;;;;32.95;10.50;;;;;;;;;;5103785;27;20019;-74
2021/01/27 13:54:21;;;;;;;31.40;10.10;;;;;;;;;;5107550;28;20034;-75
2021/01/27 13:56:47;;;;;;;32.28;10.88;;;;;;;;;;5107580;28;20557;-75
2021/01/27 13:59:13;;;;;;;20.58;9.88;;;;;;;;;;5108088;28;20051;-75
2021/01/27 14:01:40;;;;;;;29.95;11.07;;;;;;;;;;5098032;28;20500;-75
2021/01/27 14:04:06;;;;;;;30.80;10.45;;;;;;;;;;5106060;27;20492;-73
2021/01/27 14:06:34;;;;;;;26.58;10.32;;;;;;;;;;5109288;28;20058;-73
2021/01/27 14:09:00;;;;;;;25.63;10.55;;;;;;;;;;5107607;28;20024;-75
2021/01/27 14:11:26;;;;;;;24.67;9.82;;;;;;;;;;5117112;27;20036;-73
2021/01/27 14:13:52;;;;;;;33.70;11.68;;;;;;;;;;5105121;28;20031;-74
2021/01/27 14:16:18;;;;;;;34.95;10.75;;;;;;;;;;5100260;27;20036;-74
2021/01/27 14:18:44;;;;;;;27.25;9.32;;;;;;;;;;5109277;28;20031;-74
2021/01/27 14:21:10;;;;;;;25.75;9.48;;;;;;;;;;5103703;28;20118;-73
2021/01/27 14:23:36;;;;;;;23.92;10.73;;;;;;;;;;5106321;28;20051;-73
2021/01/27 14:26:03;;;;;;;24.52;9.40;;;;;;;;;;5107860;28;20056;-74
2021/01/27 14:28:29;;;;;;;29.02;9.77;;;;;;;;;;5104092;28;20036;-75
2021/01/27 14:30:55;;;;;;;29.08;9.38;;;;;;;;;;5106327;28;20023;-74
2021/01/27 14:33:21;;;;;;;26.17;11.57;;;;;;;;;;5109840;27;20032;-74
2021/01/27 14:35:47;;;;;;;23.55;9.77;;;;;;;;;;5112900;27;20054;-74